Time;durP1;ratioP1;P1;durP2;ratioP2;P2;SDS_P1;SDS_P2;PMS_P1;PMS_P2;Temp;Humidity;BMP_temperature;BMP_pressure;BME280_temperature;BME280_humidity;BME280_pressure;Samples;Min_cycle;Max_cycle;Signal;HPM_P1;HPM_P2
2022/09/24 00:00:40;;;;;;;;;;;13.50;99.90;;;;;;5073060;28;19920;-79
2022/09/24 00:03:06;;;;;;;;;;;13.50;99.90;;;;;;5056255;28;19931;-79
2022/09/24 00:05:35;;;;;;;;;;;13.50;99.90;;;;;;5072294;28;19925;-79
2022/09/24 00:08:01;;;;;;;;;;;13.50;99.90;;;;;;5056031;28;19920;-79
2022/09/24 00:10:26;;;;;;;;;;;13.50;99.90;;;;;;5056101;28;20317;-79
2022/09/24 00:12:52;;;;;;;;;;;13.50;99.90;;;;;;5055704;28;19920;-79
2022/09/24 00:15:18;;;;;;;;;;;13.50;99.90;;;;;;5055911;28;19972;-79
2022/09/24 00:17:43;;;;;;;;;;;13.50;99.90;;;;;;5055846;28;19920;-79
2022/09/24 00:20:09;;;;;;;;;;;13.50;99.90;;;;;;5056167;28;19921;-79
2022/09/24 00:22:34;;;;;;;;;;;13.50;99.90;;;;;;5039435;28;19920;-78
2022/09/24 00:27:44;;;;;;;;;;;13.50;99.90;;;;;;5055919;28;19950;-79
2022/09/24 00:30:09;;;;;;;;;;;13.40;99.90;;;;;;5055951;28;19924;-79
2022/09/24 00:32:35;;;;;;;;;;;13.50;99.90;;;;;;5055896;28;20359;-79
2022/09/24 00:35:01;;;;;;;;;;;13.50;99.90;;;;;;5072558;28;19975;-80
2022/09/24 00:37:27;;;;;;;;;;;13.50;99.90;;;;;;5055831;28;19967;-80
2022/09/24 00:39:52;;;;;;;;;;;13.50;99.90;;;;;;5055580;28;19971;-80
2022/09/24 00:42:19;;;;;;;;;;;13.50;99.90;;;;;;5072483;28;19924;-80
2022/09/24 00:44:44;;;;;;;;;;;13.50;99.90;;;;;;5055654;28;19921;-79
2022/09/24 00:47:15;;;;;;;;;;;13.50;99.90;;;;;;5054852;28;19921;-80
2022/09/24 00:49:41;;;;;;;;;;;13.50;99.90;;;;;;5055484;28;19927;-79
2022/09/24 00:52:07;;;;;;;;;;;13.50;99.90;;;;;;5055542;28;19924;-80
2022/09/24 00:54:32;;;;;;;;;;;13.40;99.90;;;;;;5072100;28;19927;-80
2022/09/24 00:56:58;;;;;;;;;;;13.50;99.90;;;;;;5055484;28;19927;-80
2022/09/24 00:59:25;;;;;;;;;;;13.50;99.90;;;;;;5054847;28;19947;-79
2022/09/24 01:01:54;;;;;;;;;;;13.50;99.90;;;;;;5055733;28;19927;-80
2022/09/24 01:04:20;;;;;;;;;;;13.50;99.90;;;;;;5072131;28;19921;-79
2022/09/24 01:06:49;;;;;;;;;;;13.50;99.90;;;;;;5054970;28;20421;-79
2022/09/24 01:09:16;;;;;;;;;;;13.40;99.90;;;;;;5071957;28;19967;-79
2022/09/24 01:12:00;;;;;;;;;;;13.50;99.90;;;;;;5055509;28;20330;-79
2022/09/24 01:14:30;;;;;;;;;;;13.50;99.90;;;;;;5055076;28;19971;-79
2022/09/24 01:17:02;;;;;;;;;;;13.50;99.90;;;;;;5071335;28;19972;-80
2022/09/24 01:19:47;;;;;;;;;;;13.50;99.90;;;;;;5071922;28;19920;-79
2022/09/24 01:22:25;;;;;;;;;;;13.40;99.90;;;;;;5053525;28;19921;-79
2022/09/24 01:24:57;;;;;;;;;;;13.50;99.90;;;;;;5054056;28;20007;-79
2022/09/24 01:27:40;;;;;;;;;;;13.50;99.90;;;;;;5070143;28;19921;-79
2022/09/24 01:30:06;;;;;;;;;;;13.50;99.90;;;;;;5053030;28;19920;-79
2022/09/24 01:32:37;;;;;;;;;;;13.50;99.90;;;;;;5054932;28;20467;-79
2022/09/24 01:35:14;;;;;;;;;;;13.40;99.90;;;;;;5054453;28;19921;-79
2022/09/24 01:37:43;;;;;;;;;;;13.50;99.90;;;;;;5054508;28;19927;-79
2022/09/24 01:40:10;;;;;;;;;;;13.40;99.90;;;;;;5054618;28;19920;-79
2022/09/24 01:42:37;;;;;;;;;;;13.40;99.90;;;;;;5037888;28;19976;-80
2022/09/24 01:45:03;;;;;;;;;;;13.40;99.90;;;;;;5070889;28;19921;-79
2022/09/24 01:47:30;;;;;;;;;;;13.40;99.90;;;;;;5070978;28;19967;-79
2022/09/24 01:49:56;;;;;;;;;;;13.40;99.90;;;;;;5054633;28;19920;-79
2022/09/24 01:52:24;;;;;;;;;;;13.40;99.90;;;;;;5070880;28;19928;-79
2022/09/24 01:54:51;;;;;;;;;;;13.40;99.90;;;;;;5054364;28;19928;-79
2022/09/24 01:57:32;;;;;;;;;;;13.40;99.90;;;;;;5054196;28;20368;-79
2022/09/24 02:00:04;;;;;;;;;;;13.40;99.90;;;;;;5070960;28;19943;-79
2022/09/24 02:02:35;;;;;;;;;;;13.40;99.90;;;;;;5071544;28;19920;-79
2022/09/24 02:05:06;;;;;;;;;;;13.40;99.90;;;;;;5037467;28;19921;-79
2022/09/24 02:07:38;;;;;;;;;;;13.40;99.90;;;;;;5053991;28;19927;-79
2022/09/24 02:10:04;;;;;;;;;;;13.40;99.90;;;;;;5054111;28;19920;-79
2022/09/24 02:12:38;;;;;;;;;;;13.40;99.90;;;;;;5053921;28;20348;-81
2022/09/24 02:15:13;;;;;;;;;;;13.40;99.90;;;;;;5070913;28;20368;-81
2022/09/24 02:17:41;;;;;;;;;;;13.40;99.90;;;;;;5053922;28;20295;-80
2022/09/24 02:20:15;;;;;;;;;;;13.40;99.90;;;;;;5037346;28;20023;-80
2022/09/24 02:22:41;;;;;;;;;;;13.40;99.90;;;;;;5054128;28;20438;-80
2022/09/24 02:25:09;;;;;;;;;;;13.40;99.90;;;;;;5053618;28;19979;-81
2022/09/24 02:27:35;;;;;;;;;;;13.40;99.90;;;;;;5070280;28;19927;-80
2022/09/24 02:30:00;;;;;;;;;;;13.40;99.90;;;;;;5053889;28;20366;-80
2022/09/24 02:32:30;;;;;;;;;;;13.30;99.90;;;;;;5053354;28;19947;-80
2022/09/24 02:35:01;;;;;;;;;;;13.40;99.90;;;;;;5070080;28;20372;-80
2022/09/24 02:37:26;;;;;;;;;;;13.40;99.90;;;;;;5070967;28;19928;-80
2022/09/24 02:39:52;;;;;;;;;;;13.40;99.90;;;;;;5070590;28;20365;-80
2022/09/24 02:42:18;;;;;;;;;;;13.40;99.90;;;;;;5070467;28;19920;-81
2022/09/24 02:44:44;;;;;;;;;;;13.40;99.90;;;;;;5036843;28;20000;-80
2022/09/24 02:47:09;;;;;;;;;;;13.40;99.90;;;;;;5053486;28;19960;-80
2022/09/24 02:49:35;;;;;;;;;;;13.40;99.90;;;;;;5053447;28;19924;-80
2022/09/24 02:52:01;;;;;;;;;;;13.40;99.90;;;;;;5036893;28;19925;-80
2022/09/24 02:54:26;;;;;;;;;;;13.30;99.90;;;;;;5053376;28;19924;-80
2022/09/24 02:56:52;;;;;;;;;;;13.30;99.90;;;;;;5053389;28;19976;-80
2022/09/24 02:59:18;;;;;;;;;;;13.30;99.90;;;;;;5053101;28;19927;-80
2022/09/24 03:01:43;;;;;;;;;;;13.40;99.90;;;;;;5053188;28;20368;-80
2022/09/24 03:04:10;;;;;;;;;;;13.30;99.90;;;;;;5036484;28;19927;-80
2022/09/24 03:06:35;;;;;;;;;;;13.30;99.90;;;;;;5053247;28;19964;-80
2022/09/24 03:09:02;;;;;;;;;;;13.30;99.90;;;;;;5070740;28;19963;-80
2022/09/24 03:11:28;;;;;;;;;;;13.30;99.90;;;;;;5055434;28;19968;-80
2022/09/24 03:13:54;;;;;;;;;;;13.30;99.90;;;;;;5057316;28;19920;-80
2022/09/24 03:16:20;;;;;;;;;;;13.30;99.90;;;;;;5040163;28;19920;-80
2022/09/24 03:18:46;;;;;;;;;;;13.30;99.90;;;;;;5073342;28;19927;-80
2022/09/24 03:21:12;;;;;;;;;;;13.30;99.90;;;;;;5041191;28;19924;-80
2022/09/24 03:23:38;;;;;;;;;;;13.30;99.90;;;;;;5056985;28;20015;-80
2022/09/24 03:26:04;;;;;;;;;;;13.40;99.90;;;;;;5056767;28;20365;-80
2022/09/24 03:28:30;;;;;;;;;;;13.30;99.90;;;;;;5057324;28;19920;-80
2022/09/24 03:30:58;;;;;;;;;;;13.30;99.90;;;;;;5056949;28;19970;-80
2022/09/24 03:33:33;;;;;;;;;;;13.30;99.90;;;;;;5074303;28;19983;-80
2022/09/24 03:36:00;;;;;;;;;;;13.30;99.90;;;;;;5073514;28;20435;-80
2022/09/24 03:38:25;;;;;;;;;;;13.30;99.90;;;;;;5073876;28;19920;-80
2022/09/24 03:40:51;;;;;;;;;;;13.30;99.90;;;;;;5056934;28;19921;-80
2022/09/24 03:43:17;;;;;;;;;;;13.20;99.90;;;;;;5073806;28;19931;-80
2022/09/24 03:45:42;;;;;;;;;;;13.30;99.90;;;;;;5056218;28;20365;-80
2022/09/24 03:48:08;;;;;;;;;;;13.30;99.90;;;;;;5056445;28;19925;-80
2022/09/24 03:50:37;;;;;;;;;;;13.30;99.90;;;;;;5073529;28;20014;-81
2022/09/24 03:53:02;;;;;;;;;;;13.30;99.90;;;;;;5056275;28;19921;-81
2022/09/24 03:55:28;;;;;;;;;;;13.30;99.90;;;;;;5056274;28;20019;-80
2022/09/24 03:57:53;;;;;;;;;;;13.30;99.90;;;;;;5072947;28;19973;-81
2022/09/24 04:00:19;;;;;;;;;;;13.30;99.90;;;;;;5056149;28;19970;-80
2022/09/24 04:02:45;;;;;;;;;;;13.30;99.90;;;;;;5056341;28;19943;-80
2022/09/24 04:05:10;;;;;;;;;;;13.30;99.90;;;;;;5039139;28;20311;-80
2022/09/24 04:07:36;;;;;;;;;;;13.30;99.90;;;;;;5056447;28;19971;-81
2022/09/24 04:10:02;;;;;;;;;;;13.30;99.90;;;;;;5056254;28;20297;-81
2022/09/24 04:12:28;;;;;;;;;;;13.30;99.90;;;;;;5072648;28;20284;-80
2022/09/24 04:14:54;;;;;;;;;;;13.30;99.90;;;;;;5072652;28;20364;-81
2022/09/24 04:17:19;;;;;;;;;;;13.20;99.90;;;;;;5056042;28;19927;-80
2022/09/24 04:19:45;;;;;;;;;;;13.20;99.90;;;;;;5055796;28;20019;-80
2022/09/24 04:22:10;;;;;;;;;;;13.20;99.90;;;;;;5054807;28;19991;-81
2022/09/24 04:24:36;;;;;;;;;;;13.30;99.90;;;;;;5072439;28;20356;-81
2022/09/24 04:27:02;;;;;;;;;;;13.30;99.90;;;;;;5056013;28;19928;-80
2022/09/24 04:29:27;;;;;;;;;;;13.20;99.90;;;;;;5056198;28;19925;-80
2022/09/24 04:31:53;;;;;;;;;;;13.30;99.90;;;;;;5055769;28;19924;-80
2022/09/24 04:34:19;;;;;;;;;;;13.20;99.90;;;;;;5072537;28;20364;-81
2022/09/24 04:36:45;;;;;;;;;;;13.20;99.90;;;;;;5072280;28;20466;-80
2022/09/24 04:39:10;;;;;;;;;;;13.20;99.90;;;;;;5039016;28;19920;-80
2022/09/24 04:41:36;;;;;;;;;;;13.20;99.90;;;;;;5072513;28;19924;-81
2022/09/24 04:44:04;;;;;;;;;;;13.20;99.90;;;;;;5071931;28;20023;-81
2022/09/24 04:46:32;;;;;;;;;;;13.30;99.90;;;;;;5072364;28;19927;-80
2022/09/24 04:48:57;;;;;;;;;;;13.30;99.90;;;;;;5056011;28;19921;-81
2022/09/24 04:51:23;;;;;;;;;;;13.30;99.90;;;;;;5072350;28;19920;-81
2022/09/24 04:53:49;;;;;;;;;;;13.20;99.90;;;;;;5055242;28;19944;-80
2022/09/24 04:56:14;;;;;;;;;;;13.30;99.90;;;;;;5055054;28;20384;-80
2022/09/24 04:58:40;;;;;;;;;;;13.30;99.90;;;;;;5055072;28;19920;-81
2022/09/24 05:01:06;;;;;;;;;;;13.30;99.90;;;;;;5055470;28;20416;-80
2022/09/24 05:03:32;;;;;;;;;;;13.30;99.90;;;;;;5071826;28;19947;-80
2022/09/24 05:05:57;;;;;;;;;;;13.30;99.90;;;;;;5071802;28;20003;-80
2022/09/24 05:08:23;;;;;;;;;;;13.30;99.90;;;;;;5055063;28;20275;-81
2022/09/24 05:10:49;;;;;;;;;;;13.30;99.90;;;;;;5055004;28;20416;-81
2022/09/24 05:13:14;;;;;;;;;;;13.30;99.90;;;;;;5053663;28;19921;-81
2022/09/24 05:15:40;;;;;;;;;;;13.30;99.90;;;;;;5052024;28;19966;-81
2022/09/24 05:18:05;;;;;;;;;;;13.30;99.90;;;;;;5046787;28;19920;-81
2022/09/24 05:20:31;;;;;;;;;;;13.30;99.90;;;;;;5054292;28;19967;-80
2022/09/24 05:22:57;;;;;;;;;;;13.30;99.90;;;;;;5054511;28;19924;-80
2022/09/24 05:25:22;;;;;;;;;;;13.40;99.90;;;;;;5070710;28;19921;-81
2022/09/24 05:27:49;;;;;;;;;;;13.30;99.90;;;;;;5052404;28;20015;-81
2022/09/24 05:30:15;;;;;;;;;;;13.30;99.90;;;;;;5054722;28;19921;-81
2022/09/24 05:32:40;;;;;;;;;;;13.30;99.90;;;;;;5054761;28;19921;-81
2022/09/24 05:35:09;;;;;;;;;;;13.30;99.90;;;;;;5053953;28;19948;-80
2022/09/24 05:37:35;;;;;;;;;;;13.30;99.90;;;;;;5071199;28;19921;-80
2022/09/24 05:40:46;;;;;;;;;;;13.30;99.90;;;;;;5054855;28;19921;-81
2022/09/24 05:42:46;;;;;;;;;;;13.30;99.90;;;;;;5054429;28;19925;-81
2022/09/24 05:45:17;;;;;;;;;;;13.30;99.90;;;;;;5053006;28;19921;-81
2022/09/24 05:47:46;;;;;;;;;;;13.30;99.90;;;;;;5088226;28;20292;-81
2022/09/24 05:50:12;;;;;;;;;;;13.30;99.90;;;;;;5087691;28;19921;-81
2022/09/24 05:52:38;;;;;;;;;;;13.30;99.90;;;;;;5037523;28;19920;-81
2022/09/24 05:55:04;;;;;;;;;;;13.30;99.90;;;;;;5087100;28;20266;-82
2022/09/24 05:57:29;;;;;;;;;;;13.30;99.90;;;;;;5034399;28;19928;-82
2022/09/24 05:59:55;;;;;;;;;;;13.30;99.90;;;;;;5036929;28;19920;-82
2022/09/24 06:02:20;;;;;;;;;;;13.30;99.90;;;;;;5037352;28;19974;-82
2022/09/24 06:04:46;;;;;;;;;;;13.30;99.90;;;;;;5087363;28;19925;-82
2022/09/24 06:07:12;;;;;;;;;;;13.40;99.90;;;;;;5037622;28;19927;-82
2022/09/24 06:09:37;;;;;;;;;;;13.30;99.90;;;;;;5086883;28;19921;-82
2022/09/24 06:12:06;;;;;;;;;;;13.40;99.90;;;;;;5036707;28;19921;-82
2022/09/24 06:14:33;;;;;;;;;;;13.30;99.90;;;;;;5025092;28;19921;-82
2022/09/24 06:17:00;;;;;;;;;;;13.40;99.90;;;;;;5037381;28;19920;-82
2022/09/24 06:19:25;;;;;;;;;;;13.40;99.90;;;;;;5036661;28;20067;-82
2022/09/24 06:21:51;;;;;;;;;;;13.40;99.90;;;;;;5053643;28;19964;-82
2022/09/24 06:24:16;;;;;;;;;;;13.40;99.90;;;;;;5070295;28;19929;-82
2022/09/24 06:26:42;;;;;;;;;;;13.40;99.90;;;;;;5053198;28;19921;-82
2022/09/24 06:29:08;;;;;;;;;;;13.40;99.90;;;;;;5037533;28;19927;-82
2022/09/24 06:31:33;;;;;;;;;;;13.50;99.90;;;;;;5053041;28;19924;-82
2022/09/24 06:34:01;;;;;;;;;;;13.40;99.90;;;;;;5050119;28;19936;-81
2022/09/24 06:36:27;;;;;;;;;;;13.50;99.90;;;;;;5068446;28;19925;-82
2022/09/24 06:38:52;;;;;;;;;;;13.50;99.90;;;;;;5085379;28;19974;-82
2022/09/24 06:41:18;;;;;;;;;;;13.50;99.90;;;;;;5068059;28;19921;-81
2022/09/24 06:43:43;;;;;;;;;;;13.50;99.90;;;;;;5051796;28;19920;-81
2022/09/24 06:46:09;;;;;;;;;;;13.50;99.90;;;;;;5069992;28;19925;-86
2022/09/24 06:48:37;;;;;;;;;;;13.50;99.90;;;;;;5039661;28;20368;-81
2022/09/24 06:51:06;;;;;;;;;;;13.60;99.90;;;;;;5039064;28;20015;-82
2022/09/24 06:53:31;;;;;;;;;;;13.60;99.90;;;;;;5040336;28;19975;-82
2022/09/24 06:56:02;;;;;;;;;;;13.60;99.90;;;;;;5055881;28;19952;-82
2022/09/24 06:58:28;;;;;;;;;;;13.60;99.90;;;;;;5072274;28;19927;-82
2022/09/24 07:00:58;;;;;;;;;;;13.60;99.90;;;;;;5072767;28;19928;-82
2022/09/24 07:03:24;;;;;;;;;;;13.60;99.90;;;;;;5038814;28;19921;-82
2022/09/24 07:05:50;;;;;;;;;;;13.60;99.90;;;;;;5054947;28;19921;-82
2022/09/24 07:08:16;;;;;;;;;;;13.60;99.90;;;;;;5071543;28;19929;-82
2022/09/24 07:10:46;;;;;;;;;;;13.70;99.90;;;;;;5055771;28;20408;-81
2022/09/24 07:13:12;;;;;;;;;;;13.70;99.90;;;;;;5067252;28;19920;-82
2022/09/24 07:15:38;;;;;;;;;;;13.70;99.90;;;;;;5038691;28;19928;-82
2022/09/24 07:18:03;;;;;;;;;;;13.70;99.90;;;;;;5071628;28;19920;-81
2022/09/24 07:20:29;;;;;;;;;;;13.70;99.90;;;;;;5038546;28;20030;-82
2022/09/24 07:22:55;;;;;;;;;;;13.70;99.90;;;;;;5054798;28;19920;-82
2022/09/24 07:25:20;;;;;;;;;;;13.80;99.90;;;;;;5071570;28;19943;-82
2022/09/24 07:27:46;;;;;;;;;;;13.70;99.90;;;;;;5055345;28;20027;-82
2022/09/24 07:30:12;;;;;;;;;;;13.70;99.90;;;;;;5055241;28;20452;-81
2022/09/24 07:32:37;;;;;;;;;;;13.70;99.90;;;;;;5054952;28;19927;-81
2022/09/24 07:35:03;;;;;;;;;;;13.70;99.90;;;;;;5039517;28;19920;-82
2022/09/24 07:37:32;;;;;;;;;;;13.70;99.90;;;;;;5091769;28;19924;-82
2022/09/24 07:39:57;;;;;;;;;;;13.60;99.90;;;;;;5058453;28;20011;-81
2022/09/24 07:42:24;;;;;;;;;;;13.80;99.90;;;;;;5058501;28;19971;-82
2022/09/24 07:44:50;;;;;;;;;;;13.70;99.90;;;;;;5038587;28;19920;-82
2022/09/24 07:47:16;;;;;;;;;;;13.70;99.90;;;;;;5071717;28;20364;-82
2022/09/24 07:49:41;;;;;;;;;;;13.70;99.90;;;;;;5088689;28;19983;-82
2022/09/24 07:52:07;;;;;;;;;;;13.80;99.90;;;;;;5088159;28;20429;-82
2022/09/24 07:54:32;;;;;;;;;;;13.70;99.90;;;;;;5054964;28;19973;-82
2022/09/24 07:56:59;;;;;;;;;;;13.60;99.90;;;;;;5037966;28;19924;-82
2022/09/24 07:59:25;;;;;;;;;;;13.70;99.90;;;;;;5054456;28;20303;-82
2022/09/24 08:01:51;;;;;;;;;;;13.70;99.90;;;;;;5054816;28;19921;-82
2022/09/24 08:04:17;;;;;;;;;;;13.70;99.90;;;;;;5054578;28;19924;-82
2022/09/24 08:06:42;;;;;;;;;;;13.70;99.90;;;;;;5054807;28;19920;-83
2022/09/24 08:09:08;;;;;;;;;;;13.80;99.90;;;;;;5054494;28;19964;-82
2022/09/24 08:11:33;;;;;;;;;;;13.70;99.90;;;;;;5071304;28;20455;-83
2022/09/24 08:13:59;;;;;;;;;;;13.80;99.90;;;;;;5071117;28;20368;-83
2022/09/24 08:16:25;;;;;;;;;;;13.80;99.90;;;;;;5071233;28;20343;-82
2022/09/24 08:18:51;;;;;;;;;;;13.80;99.90;;;;;;5054570;28;19947;-83
2022/09/24 08:21:17;;;;;;;;;;;13.80;99.90;;;;;;5087799;28;19924;-83
2022/09/24 08:23:43;;;;;;;;;;;13.80;99.90;;;;;;5037415;28;19927;-82
2022/09/24 08:26:09;;;;;;;;;;;13.90;99.90;;;;;;5087066;28;20257;-83
2022/09/24 08:28:35;;;;;;;;;;;13.80;99.90;;;;;;5053763;28;19920;-82
2022/09/24 08:31:02;;;;;;;;;;;13.90;99.90;;;;;;5064232;28;19928;-82
2022/09/24 08:33:28;;;;;;;;;;;13.90;99.90;;;;;;5055639;28;19920;-82
2022/09/24 08:35:53;;;;;;;;;;;13.90;99.90;;;;;;5038618;28;20427;-82
2022/09/24 08:38:22;;;;;;;;;;;13.90;99.90;;;;;;5055514;28;19927;-82
2022/09/24 08:40:50;;;;;;;;;;;13.90;99.90;;;;;;5038647;28;19928;-82
2022/09/24 08:43:34;;;;;;;;;;;13.90;99.90;;;;;;5051224;28;19967;-82
2022/09/24 08:48:50;;;;;;;;;;;13.90;99.90;;;;;;5055537;28;20385;-82
2022/09/24 08:51:17;;;;;;;;;;;13.90;99.90;;;;;;5038663;28;20059;-82
2022/09/24 08:53:47;;;;;;;;;;;14.00;99.90;;;;;;5053428;28;20294;-82
2022/09/24 08:56:13;;;;;;;;;;;14.00;99.90;;;;;;5038484;28;20406;-82
2022/09/24 08:58:51;;;;;;;;;;;14.00;99.90;;;;;;5071251;28;19920;-82
2022/09/24 09:01:26;;;;;;;;;;;14.10;99.90;;;;;;5054661;28;20411;-81
2022/09/24 09:04:23;;;;;;;;;;;14.10;99.90;;;;;;5088084;28;19921;-81
2022/09/24 09:06:57;;;;;;;;;;;14.20;99.90;;;;;;5054938;28;19924;-81
2022/09/24 09:09:37;;;;;;;;;;;14.20;99.90;;;;;;5087325;28;19921;-81
2022/09/24 09:12:05;;;;;;;;;;;14.20;99.90;;;;;;5071679;28;19927;-81
2022/09/24 09:14:39;;;;;;;;;;;14.30;99.90;;;;;;5034910;28;19984;-81
2022/09/24 09:17:11;;;;;;;;;;;14.20;99.90;;;;;;5058926;28;19924;-81
2022/09/24 09:19:38;;;;;;;;;;;14.30;99.90;;;;;;5085315;28;19931;-81
2022/09/24 09:22:07;;;;;;;;;;;14.20;99.90;;;;;;5054486;28;20010;-82
2022/09/24 09:24:40;;;;;;;;;;;14.20;99.90;;;;;;5070699;28;20266;-82
2022/09/24 09:27:10;;;;;;;;;;;14.20;99.90;;;;;;5087356;28;19920;-82
2022/09/24 09:29:36;;;;;;;;;;;14.20;99.90;;;;;;5053966;28;20317;-82
2022/09/24 09:32:19;;;;;;;;;;;14.30;99.90;;;;;;5054125;28;19928;-81
2022/09/24 09:34:44;;;;;;;;;;;14.20;99.90;;;;;;5053694;28;19928;-81
2022/09/24 09:37:10;;;;;;;;;;;14.20;99.90;;;;;;5070261;28;20004;-81
2022/09/24 09:39:42;;;;;;;;;;;14.30;99.90;;;;;;5053508;28;19964;-80
2022/09/24 09:42:21;;;;;;;;;;;14.30;99.90;;;;;;5054286;28;19964;-81
2022/09/24 09:44:47;;;;;;;;;;;14.30;99.90;;;;;;5087889;28;19924;-81
2022/09/24 09:47:25;;;;;;;;;;;14.30;99.90;;;;;;5053501;28;19920;-82
2022/09/24 09:49:54;;;;;;;;;;;14.30;99.90;;;;;;5050792;28;19975;-81
2022/09/24 09:52:21;;;;;;;;;;;14.30;99.90;;;;;;5054370;28;19924;-80
2022/09/24 09:54:47;;;;;;;;;;;14.30;99.90;;;;;;5070808;28;19932;-82
2022/09/24 09:57:18;;;;;;;;;;;14.30;99.90;;;;;;5069990;28;20334;-81
2022/09/24 09:59:45;;;;;;;;;;;14.30;99.90;;;;;;5054071;28;19920;-81
2022/09/24 10:02:18;;;;;;;;;;;14.30;99.90;;;;;;5054367;28;20320;-81
2022/09/24 10:04:43;;;;;;;;;;;14.30;99.90;;;;;;5053900;28;19920;-81
2022/09/24 10:07:10;;;;;;;;;;;14.30;99.90;;;;;;5053837;28;20400;-81
2022/09/24 10:09:37;;;;;;;;;;;14.30;99.90;;;;;;5036946;28;19920;-81
2022/09/24 10:12:07;;;;;;;;;;;14.30;99.90;;;;;;5070631;28;19921;-81
2022/09/24 10:14:33;;;;;;;;;;;14.40;99.90;;;;;;5070752;28;19921;-81
2022/09/24 10:17:04;;;;;;;;;;;14.50;99.90;;;;;;5053091;28;20252;-81
2022/09/24 10:19:30;;;;;;;;;;;14.60;99.90;;;;;;5070590;28;19928;-81
2022/09/24 10:21:56;;;;;;;;;;;14.60;99.90;;;;;;5052292;28;20007;-82
2022/09/24 10:24:24;;;;;;;;;;;14.70;99.90;;;;;;5052761;28;20004;-82
2022/09/24 10:26:50;;;;;;;;;;;14.80;99.90;;;;;;5036901;28;19944;-82
2022/09/24 10:32:02;;;;;;;;;;;14.90;99.90;;;;;;5054454;28;19924;-82
2022/09/24 10:34:28;;;;;;;;;;;14.90;99.90;;;;;;5035693;28;19982;-81
2022/09/24 10:36:59;;;;;;;;;;;14.90;99.90;;;;;;5052904;28;19924;-81
2022/09/24 10:39:24;;;;;;;;;;;14.90;99.90;;;;;;5069874;28;19960;-82
2022/09/24 10:41:51;;;;;;;;;;;14.90;99.90;;;;;;5052911;28;19921;-82
2022/09/24 10:44:17;;;;;;;;;;;14.90;99.90;;;;;;5070123;28;20426;-82
2022/09/24 10:46:46;;;;;;;;;;;14.90;99.90;;;;;;5068574;28;20308;-82
2022/09/24 10:49:11;;;;;;;;;;;15.00;99.90;;;;;;5052519;28;19920;-81
2022/09/24 10:51:54;;;;;;;;;;;15.10;99.90;;;;;;5052308;28;20296;-81
2022/09/24 10:54:22;;;;;;;;;;;15.10;99.90;;;;;;5083099;28;19921;-83
2022/09/24 10:56:53;;;;;;;;;;;15.10;99.90;;;;;;5060032;28;19921;-82
2022/09/24 10:59:31;;;;;;;;;;;15.10;99.90;;;;;;5066629;28;19975;-82
2022/09/24 11:02:12;;;;;;;;;;;15.10;99.90;;;;;;5049702;28;19924;-82
2022/09/24 11:04:40;;;;;;;;;;;15.00;99.90;;;;;;5053259;28;19920;-83
2022/09/24 11:07:06;;;;;;;;;;;15.10;99.90;;;;;;5036650;28;19921;-83
2022/09/24 11:09:32;;;;;;;;;;;15.10;99.90;;;;;;5052829;28;20357;-83
2022/09/24 11:12:05;;;;;;;;;;;15.10;99.90;;;;;;5053726;28;19999;-81
2022/09/24 11:14:31;;;;;;;;;;;15.20;99.90;;;;;;5052881;28;20364;-83
2022/09/24 11:16:59;;;;;;;;;;;15.30;99.90;;;;;;5052750;28;19924;-82
2022/09/24 11:19:25;;;;;;;;;;;15.30;99.90;;;;;;5068814;28;19986;-82
2022/09/24 11:21:59;;;;;;;;;;;15.30;99.90;;;;;;5052745;28;19960;-82
2022/09/24 11:24:38;;;;;;;;;;;15.30;99.90;;;;;;5070202;28;20367;-82
2022/09/24 11:27:10;;;;;;;;;;;15.30;99.90;;;;;;5086639;28;19947;-82
2022/09/24 11:30:02;;;;;;;;;;;15.20;99.90;;;;;;5052608;28;19924;-81
2022/09/24 11:32:46;;;;;;;;;;;15.30;99.90;;;;;;4997143;28;19922;-80
2022/09/24 11:35:31;;;;;;;;;;;15.20;99.90;;;;;;5015549;28;20028;-81
2022/09/24 11:37:56;;;;;;;;;;;15.20;99.90;;;;;;5032249;28;20284;-80
2022/09/24 11:41:56;;;;;;;0.10;0.10;;;15.10;99.90;;;;;;5092463;27;20456;-82
2022/09/24 11:44:54;;;;;;;0.30;0.30;;;15.00;99.90;;;;;;5088289;28;20058;-85
2022/09/24 11:47:54;;;;;;;0.00;0.00;;;14.90;99.90;;;;;;5071758;28;21181;-81
2022/09/24 11:50:25;;;;;;;0.00;0.00;;;14.90;99.90;;;;;;5082674;28;20056;-80
2022/09/24 11:53:21;;;;;;;0.00;0.00;;;14.90;99.90;;;;;;5089365;28;20041;-81
2022/09/24 11:55:53;;;;;;;0.00;0.00;;;14.90;99.90;;;;;;5085784;28;20089;-80
2022/09/24 11:58:30;;;;;;;0.05;0.05;;;14.90;99.90;;;;;;5089570;28;20048;-85
2022/09/24 12:00:59;;;;;;;0.20;0.20;;;14.90;99.90;;;;;;5078072;28;20365;-82
2022/09/24 12:03:36;;;;;;;0.20;0.20;;;14.90;99.90;;;;;;5079390;28;20071;-78
2022/09/24 12:06:29;;;;;;;0.15;0.15;;;14.90;99.90;;;;;;5089952;28;20067;-79
2022/09/24 12:09:08;;;;;;;0.00;0.00;;;14.90;99.90;;;;;;5083930;28;20512;-82
2022/09/24 12:12:11;;;;;;;0.00;0.00;;;14.90;99.90;;;;;;5070373;28;20412;-79
2022/09/24 12:15:08;;;;;;;0.00;0.00;;;14.90;99.90;;;;;;5022606;28;20061;-79
2022/09/24 12:17:57;;;;;;;0.00;0.00;;;14.80;99.90;;;;;;5015239;28;20493;-80
2022/09/24 12:20:27;;;;;;;0.10;0.10;;;14.90;99.90;;;;;;5013551;28;20152;-81
2022/09/24 12:23:04;;;;;;;0.00;0.00;;;14.80;99.90;;;;;;5030662;28;20123;-80
2022/09/24 12:25:41;;;;;;;0.00;0.00;;;14.80;99.90;;;;;;5015448;28;20111;-82
2022/09/24 12:32:52;;;;;;;0.22;0.22;;;14.80;99.90;;;;;;5029875;28;20418;-83
2022/09/24 12:33:53;;;;;;;0.00;0.00;;;14.90;99.90;;;;;;5023124;28;20168;-80
2022/09/24 12:36:55;;;;;;;0.35;0.35;;;14.90;99.90;;;;;;5030841;28;20045;-81
2022/09/24 12:39:26;;;;;;;0.00;0.00;;;15.00;99.90;;;;;;5006874;28;20552;-80
2022/09/24 12:42:06;;;;;;;0.00;0.00;;;15.10;99.90;;;;;;5014762;28;20056;-81
2022/09/24 12:44:42;;;;;;;0.00;0.00;;;15.20;99.90;;;;;;5047443;28;20090;-81
2022/09/24 12:47:26;;;;;;;0.00;0.00;;;15.30;99.90;;;;;;5015794;28;20049;-81
2022/09/24 12:50:20;;;;;;;0.00;0.00;;;15.30;99.90;;;;;;5024727;28;20077;-81
2022/09/24 12:52:46;;;;;;;0.00;0.00;;;15.40;99.90;;;;;;5041309;28;20149;-81
2022/09/24 12:55:33;;;;;;;0.00;0.00;;;15.50;99.90;;;;;;5072632;28;20488;-81
2022/09/24 12:58:24;;;;;;;0.00;0.00;;;15.50;99.90;;;;;;5063266;28;20049;-81
2022/09/24 13:00:52;;;;;;;0.20;0.20;;;15.50;99.90;;;;;;5059259;28;20044;-81
2022/09/24 13:03:35;;;;;;;0.00;0.00;;;15.50;99.90;;;;;;5066392;28;20036;-81
2022/09/24 13:06:03;;;;;;;0.20;0.20;;;15.60;99.90;;;;;;5055724;28;20041;-81
2022/09/24 13:08:40;;;;;;;0.55;0.38;;;15.60;99.90;;;;;;5068304;28;20493;-81
2022/09/24 13:11:29;;;;;;;0.00;0.00;;;15.50;99.90;;;;;;5059398;28;20052;-82
2022/09/24 13:14:02;;;;;;;0.00;0.00;;;15.50;99.90;;;;;;5063905;28;20029;-82
2022/09/24 13:16:28;;;;;;;0.00;0.00;;;15.40;99.90;;;;;;5055222;28;20052;-82
2022/09/24 13:19:01;;;;;;;0.00;0.00;;;15.40;99.90;;;;;;5066069;28;20068;-82
2022/09/24 13:21:29;;;;;;;0.00;0.00;;;15.40;99.90;;;;;;5064374;28;20500;-82
2022/09/24 13:23:55;;;;;;;0.00;0.00;;;15.40;99.90;;;;;;5059437;28;20405;-83
2022/09/24 13:26:24;;;;;;;0.25;0.22;;;15.30;99.90;;;;;;5052737;28;20125;-82
2022/09/24 13:28:59;;;;;;;0.00;0.00;;;15.30;99.90;;;;;;5038406;28;20396;-82
2022/09/24 13:31:28;;;;;;;0.28;0.25;;;15.30;99.90;;;;;;5038233;28;20559;-81
2022/09/24 13:33:57;;;;;;;0.00;0.00;;;15.20;99.90;;;;;;5052942;28;20515;-82
2022/09/24 13:36:32;;;;;;;0.00;0.00;;;15.20;99.90;;;;;;5048298;28;20467;-82
2022/09/24 13:38:57;;;;;;;0.00;0.00;;;15.20;99.90;;;;;;5048206;28;20408;-82
2022/09/24 13:41:45;;;;;;;0.00;0.00;;;15.00;99.90;;;;;;5064482;28;20062;-82
2022/09/24 13:44:34;;;;;;;1.55;0.15;;;15.00;99.90;;;;;;5067841;28;20041;-82
2022/09/24 13:47:35;;;;;;;0.00;0.00;;;14.90;99.90;;;;;;5072338;28;20445;-82
2022/09/24 13:50:39;;;;;;;0.00;0.00;;;14.90;99.90;;;;;;5051758;28;20049;-82
2022/09/24 13:53:54;;;;;;;0.00;0.00;;;14.90;99.90;;;;;;5053918;28;20114;-82
2022/09/24 13:56:20;;;;;;;0.00;0.00;;;14.90;99.90;;;;;;4972280;28;20133;-82
2022/09/24 13:58:47;;;;;;;0.00;0.00;;;14.90;99.90;;;;;;4975766;28;20543;-81
2022/09/24 14:01:12;;;;;;;0.75;0.60;;;14.90;99.90;;;;;;4962546;28;20047;-82
2022/09/24 14:03:39;;;;;;;0.00;0.00;;;15.00;99.90;;;;;;4950189;28;20093;-81
2022/09/24 14:06:15;;;;;;;0.57;0.30;;;14.90;99.90;;;;;;4976770;28;20055;-81
2022/09/24 14:08:45;;;;;;;0.03;0.00;;;14.90;99.90;;;;;;4945727;28;20124;-82
2022/09/24 14:11:25;;;;;;;3.63;0.65;;;14.90;99.90;;;;;;4966772;28;20050;-82
2022/09/24 14:13:51;;;;;;;1.65;0.20;;;14.80;99.90;;;;;;4949305;28;20060;-82
2022/09/24 14:16:22;;;;;;;0.43;0.20;;;14.80;99.90;;;;;;4950477;28;20064;-81
2022/09/24 14:18:48;;;;;;;0.00;0.00;;;14.70;99.90;;;;;;4949542;28;20058;-82
2022/09/24 14:21:30;;;;;;;0.00;0.00;;;14.60;99.90;;;;;;4951449;28;20601;-82
2022/09/24 14:24:05;;;;;;;0.00;0.00;;;14.60;99.90;;;;;;4959967;28;20054;-81
2022/09/24 14:26:48;;;;;;;0.10;0.10;;;14.50;99.90;;;;;;4943848;28;20141;-82